ADDS TAF Board (Experimental) INFO

IDs: Format: Expanded Condensed

Updated at: 0400 UTC 01 Oct 2014

KMDW - Chicago/Midway Intl, IL, US

Issued at 0301 UTC 01 Oct 2014
Time0353Z01/04Z01/05Z01/06Z01/07Z01/08Z01/09Z01/10Z01/11Z01/12Z01/13Z01/14Z01/15Z01/16Z
TypeOBSPRVLPRVLPRVLPRVLPRVLPRVLPRVLPRVLPRVLPRVLPRVLPRVLPRVL
VIS10>6>6>6>6>6>6>6>6>6>6>6>6>6
CIG22202020--------------------
CoverOVCOVCOVCOVCSCTSCTSCTSCTSCTSCTSCTSCTSCTSCT
FltCatMVFRMVFRMVFRMVFRVFRVFRVFRVFRVFRVFRVFRVFRVFRVFR
WX----------------------------
WDir90707070120120120120120120120120130130
WSpd6888555555551010
WGst----------------------------
R04/22
XWnd-4-4-4-4-5-5-5-5-5-5-5-5-10-10
HWnd47771111111111
R13/31
XWnd47771111111111
HWnd4444555555551010
Raw TAF
KMDW 010301Z 0103/0124 07008KT P6SM OVC020
  FM010700 12005KT P6SM SCT015
  FM011500 13010KT P6SM FEW025 SCT250


Raw METAR
KMDW 010353Z 09006KT 10SM OVC022 14/09 A3002 RMK SLP165 T01440089
KMDW 010253Z 07010KT 10SM OVC022 14/09 A3002 RMK SLP167 60000 T01440089 51007

TAF Board Legend

Hazard VFR MVFR IFR LIFR
Visibility (sm) >5 3≤X≤5 1≤X<3 <1
Ceiling (100 ft) >30 10≤X≤30 5≤X<10 <5
Wind Speed (kt) <10 10≤X<20 20≤X<30 ≥30
Wind Gust (kt) <15 15≤X<25 25≤X<35 ≥35
Weather No Wx Reported VCTS,-TS,-FZRA TS,FZRA +TS,+FZRA


Page loaded:  04:00 UTC  |   09:00 PM Pacific  |   10:00 PM Mountain  |   11:00 PM Central  |   12:00 AM Eastern

 

ADVISORIES

FORECASTS

FORECASTS

OBSERVATIONS

USER TOOLS

ABOUT US